Terminal Aerodrome Forecast
Issued by NWS Upton, NY

Current Version | Previous Version | Text Only | Print | Product List | Glossary On
Versions: 1 2 3 4 5 6 7 8 9 10 11 12 13 14 15 16 17 18 19 20 21 22 23 24 25 26
532
FTUS41 KOKX 131137
TAFLGA
TAF
KLGA 131137Z 1312/1412 29015G25KT P6SM BKN080
     FM131400 30020G32KT P6SM BKN080
     FM131700 31025G39KT P6SM SCT060
     FM140400 31020G33KT P6SM SCT150
     FM141000 31017G27KT P6SM FEW250=

USA.gov is the U.S. government's official web portal to all federal, state and local government web resources and services.